Time;durP1;ratioP1;P1;durP2;ratioP2;P2;SDS_P1;SDS_P2;PMS_P1;PMS_P2;Temp;Humidity;BMP_temperature;BMP_pressure;BME280_temperature;BME280_humidity;BME280_pressure;Samples;Min_cycle;Max_cycle;Signal;HPM_P1;HPM_P2
2022/07/16 00:02:32;;;;;;;5.97;2.78;;;;;;;16.34;67.35;102001.44;5091591;28;20133;-57
2022/07/16 00:04:58;;;;;;;8.32;2.50;;;;;;;16.46;66.37;102004.72;5091463;28;20446;-57
2022/07/16 00:07:23;;;;;;;5.43;2.47;;;;;;;16.53;66.00;102004.59;5091454;28;20036;-57
2022/07/16 00:09:48;;;;;;;4.33;2.90;;;;;;;16.44;65.87;102001.28;5091564;28;20452;-57
2022/07/16 00:12:14;;;;;;;4.80;2.63;;;;;;;16.51;65.55;102001.13;5091610;28;20297;-57
2022/07/16 00:14:39;;;;;;;3.95;2.53;;;;;;;16.56;65.52;101999.25;5091469;28;20036;-58
2022/07/16 00:17:05;;;;;;;3.67;2.65;;;;;;;16.63;65.36;102008.81;5091216;28;20058;-57
2022/07/16 00:19:30;;;;;;;4.80;2.45;;;;;;;16.61;65.26;102004.47;5091548;28;20387;-57
2022/07/16 00:21:57;;;;;;;5.65;3.00;;;;;;;16.51;65.36;102006.41;5091261;28;20044;-58
2022/07/16 00:24:23;;;;;;;5.75;3.08;;;;;;;16.47;64.81;102003.84;5091327;28;20111;-58
2022/07/16 00:26:49;;;;;;;4.38;2.95;;;;;;;16.36;65.63;102017.25;5091428;28;20043;-57
2022/07/16 00:29:15;;;;;;;5.38;3.22;;;;;;;16.37;65.21;102016.38;5091286;28;20690;-57
2022/07/16 00:31:42;;;;;;;6.63;3.30;;;;;;;16.30;65.47;102015.59;5090952;28;20416;-57
2022/07/16 00:34:08;;;;;;;4.75;3.10;;;;;;;16.33;65.79;102018.19;5091206;28;20036;-57
2022/07/16 00:36:35;;;;;;;5.72;3.13;;;;;;;16.36;65.56;102017.25;5090791;28;20112;-58
2022/07/16 00:39:00;;;;;;;5.35;3.47;;;;;;;16.28;66.00;102009.47;5091309;28;20079;-58
2022/07/16 00:41:25;;;;;;;6.32;3.33;;;;;;;16.37;65.83;102013.72;5091181;28;20097;-58
2022/07/16 00:44:04;;;;;;;4.57;2.95;;;;;;;16.33;65.54;102019.97;5095146;28;20419;-58
2022/07/16 00:46:30;;;;;;;9.70;4.07;;;;;;;16.35;65.92;102020.81;5095003;28;20032;-58
2022/07/16 00:48:57;;;;;;;7.65;3.90;;;;;;;16.48;65.95;102016.16;5095375;28;20367;-58
2022/07/16 00:51:23;;;;;;;7.43;3.20;;;;;;;16.48;65.89;102013.50;5094733;28;20458;-58
2022/07/16 00:53:49;;;;;;;4.47;3.08;;;;;;;16.48;65.96;102006.44;5095138;28;20046;-57
2022/07/16 00:56:15;;;;;;;6.18;3.60;;;;;;;16.47;65.61;102006.47;5094732;28;20035;-58
2022/07/16 00:58:43;;;;;;;5.35;3.50;;;;;;;16.45;65.89;102008.31;5094861;28;20104;-58
2022/07/16 01:01:09;;;;;;;6.22;3.25;;;;;;;16.56;65.78;102014.25;5094714;28;20418;-58
2022/07/16 01:03:35;;;;;;;6.38;3.30;;;;;;;16.58;65.08;102009.81;5094584;28;20052;-58
2022/07/16 01:06:03;;;;;;;4.95;3.22;;;;;;;16.62;65.24;102006.22;5094618;28;20429;-58
2022/07/16 01:08:28;;;;;;;5.43;3.00;;;;;;;16.59;65.83;102012.41;5094841;28;20042;-58
2022/07/16 01:10:54;;;;;;;4.22;3.00;;;;;;;16.58;65.51;102007.16;5094491;28;20111;-58
2022/07/16 01:13:20;;;;;;;4.30;3.00;;;;;;;16.60;65.38;102005.38;5094513;28;20046;-58
2022/07/16 01:15:46;;;;;;;4.95;3.00;;;;;;;16.55;65.40;102007.22;5094327;28;20051;-58
2022/07/16 01:18:11;;;;;;;7.88;3.50;;;;;;;16.55;65.47;102008.09;5094534;28;20039;-57
2022/07/16 01:20:37;;;;;;;5.57;3.00;;;;;;;16.59;65.74;101998.34;5094464;28;20031;-58
2022/07/16 01:23:02;;;;;;;5.57;2.90;;;;;;;16.61;65.97;102001.81;5094549;28;20028;-57
2022/07/16 01:25:27;;;;;;;6.30;3.67;;;;;;;16.59;65.38;101993.06;5094347;28;20070;-59
2022/07/16 01:27:53;;;;;;;6.03;3.15;;;;;;;16.61;65.26;101993.91;5094318;28;20119;-58
2022/07/16 01:30:18;;;;;;;3.88;3.45;;;;;;;16.53;65.56;101988.75;5094088;28;20084;-57
2022/07/16 01:32:43;;;;;;;7.80;3.60;;;;;;;16.52;66.16;101992.28;5094245;28;20340;-57
2022/07/16 01:35:10;;;;;;;7.18;3.60;;;;;;;16.55;65.56;101999.28;5094068;28;20040;-58
2022/07/16 01:37:35;;;;;;;6.35;3.08;;;;;;;16.37;65.83;102000.50;5094299;28;20478;-57
2022/07/16 01:40:00;;;;;;;6.55;3.40;;;;;;;16.30;65.94;102007.66;5093963;28;20048;-58
2022/07/16 01:42:26;;;;;;;5.15;3.03;;;;;;;16.33;66.23;102007.63;5093881;28;20094;-57
2022/07/16 01:44:51;;;;;;;5.07;3.00;;;;;;;16.37;66.26;102003.16;5094125;28;20040;-58
2022/07/16 01:47:16;;;;;;;7.25;3.30;;;;;;;16.31;65.82;102008.53;5093916;28;20411;-58
2022/07/16 01:49:41;;;;;;;5.93;3.25;;;;;;;16.33;66.03;102015.53;5093972;28;20470;-57
2022/07/16 01:52:08;;;;;;;5.93;2.88;;;;;;;16.30;65.80;102012.94;5093912;28;20363;-57
2022/07/16 01:54:35;;;;;;;4.60;2.90;;;;;;;16.28;65.87;102014.75;5092713;28;20442;-57
2022/07/16 01:57:00;;;;;;;4.75;3.30;;;;;;;16.28;66.30;102003.31;5093740;28;20756;-58
2022/07/16 01:59:25;;;;;;;6.68;3.28;;;;;;;16.25;66.30;102013.97;5093668;28;20069;-57
2022/07/16 02:01:51;;;;;;;8.55;3.10;;;;;;;16.23;66.22;101999.91;5093561;28;20056;-57
2022/07/16 02:04:16;;;;;;;5.18;3.10;;;;;;;16.27;66.37;101994.53;5093316;28;20115;-57
2022/07/16 02:06:41;;;;;;;5.35;3.33;;;;;;;16.32;66.03;102005.00;5093680;28;20375;-57
2022/07/16 02:09:07;;;;;;;5.65;2.85;;;;;;;16.26;66.19;101991.94;5093511;28;20064;-58
2022/07/16 02:11:32;;;;;;;5.38;3.30;;;;;;;16.24;66.09;101993.72;5093562;28;20054;-58
2022/07/16 02:13:57;;;;;;;5.70;3.20;;;;;;;16.33;66.36;101991.78;5093211;28;20059;-58
2022/07/16 02:16:22;;;;;;;5.35;3.20;;;;;;;16.33;66.06;101997.06;5093151;28;20032;-58
2022/07/16 02:18:48;;;;;;;8.00;3.30;;;;;;;16.29;66.31;101991.84;5093376;28;20055;-58
2022/07/16 02:21:13;;;;;;;6.27;3.47;;;;;;;16.32;65.96;101995.31;5093014;28;20626;-58
2022/07/16 02:23:39;;;;;;;6.60;3.65;;;;;;;16.27;66.28;101986.63;5093354;28;20289;-58
2022/07/16 02:26:04;;;;;;;5.88;3.40;;;;;;;16.34;66.42;101997.94;5093087;28;20043;-58
2022/07/16 02:28:29;;;;;;;6.03;3.30;;;;;;;16.33;66.15;101997.06;5093045;28;20637;-58
2022/07/16 02:30:55;;;;;;;6.70;3.27;;;;;;;16.38;66.42;101989.03;5092965;28;20060;-57
2022/07/16 02:33:21;;;;;;;6.63;3.45;;;;;;;16.35;66.58;101986.47;5092782;28;20274;-58
2022/07/16 02:35:47;;;;;;;5.25;3.50;;;;;;;16.30;66.16;101985.66;5092985;28;20088;-58
2022/07/16 02:38:13;;;;;;;6.47;3.72;;;;;;;16.31;66.32;101996.19;5093109;28;20043;-58
2022/07/16 02:40:40;;;;;;;5.65;3.50;;;;;;;16.36;66.22;101993.47;5092666;28;20042;-58
2022/07/16 02:43:07;;;;;;;6.38;3.55;;;;;;;16.34;65.95;101990.00;5092837;28;20077;-58
2022/07/16 02:45:34;;;;;;;5.65;3.65;;;;;;;16.44;66.05;101988.06;5092815;28;20415;-57
2022/07/16 02:47:59;;;;;;;5.53;3.70;;;;;;;16.41;65.63;101978.44;5092868;28;20117;-58
2022/07/16 02:50:25;;;;;;;4.68;3.28;;;;;;;16.41;66.19;101977.56;5092785;28;20213;-58
2022/07/16 02:52:51;;;;;;;6.10;3.80;;;;;;;16.36;65.96;101973.22;5092703;28;20346;-58
2022/07/16 02:55:16;;;;;;;7.30;4.10;;;;;;;16.36;66.13;101982.91;5092549;28;20046;-58
2022/07/16 02:57:42;;;;;;;7.18;4.00;;;;;;;16.36;65.74;101981.16;5092922;28;20071;-58
2022/07/16 03:00:09;;;;;;;5.60;3.83;;;;;;;16.33;65.85;101989.13;5092472;28;20036;-57
2022/07/16 03:02:34;;;;;;;9.10;4.40;;;;;;;16.27;66.74;101988.38;5092293;28;20063;-58
2022/07/16 03:05:00;;;;;;;6.70;4.22;;;;;;;16.29;66.66;101992.72;5092002;28;20064;-58
2022/07/16 03:07:25;;;;;;;7.10;4.20;;;;;;;16.27;65.99;101991.91;5092519;28;20036;-58
2022/07/16 03:09:50;;;;;;;6.90;4.50;;;;;;;16.29;66.42;101995.34;5092441;28;20060;-58
2022/07/16 03:12:16;;;;;;;7.90;4.22;;;;;;;16.27;66.32;101991.91;5092057;28;20416;-58
2022/07/16 03:14:41;;;;;;;6.47;4.15;;;;;;;16.30;66.28;102006.78;5092379;28;20180;-58
2022/07/16 03:17:07;;;;;;;6.65;4.40;;;;;;;16.29;66.39;102000.63;5092128;28;20327;-59
2022/07/16 03:19:32;;;;;;;5.88;4.40;;;;;;;16.31;66.05;101998.84;5092296;28;20036;-58
2022/07/16 03:21:57;;;;;;;6.35;3.78;;;;;;;16.31;66.83;101992.69;5092287;28;20028;-57
2022/07/16 03:24:22;;;;;;;6.95;3.97;;;;;;;16.26;66.92;101990.16;5092101;28;20089;-58
2022/07/16 03:26:48;;;;;;;7.40;4.60;;;;;;;16.31;66.37;101988.28;5091834;28;20089;-58
2022/07/16 03:29:13;;;;;;;5.60;4.07;;;;;;;16.26;66.68;101995.44;5091775;28;20028;-58
2022/07/16 03:31:38;;;;;;;8.63;4.85;;;;;;;16.26;66.72;102006.00;5091716;28;20043;-58
2022/07/16 03:34:03;;;;;;;5.90;4.53;;;;;;;16.24;66.90;101999.00;5091917;28;20031;-58
2022/07/16 03:36:29;;;;;;;6.32;4.38;;;;;;;16.28;66.62;102001.53;5091958;28;20108;-57
2022/07/16 03:38:57;;;;;;;6.87;4.60;;;;;;;16.26;66.45;102013.06;5091887;28;20035;-58
2022/07/16 03:41:23;;;;;;;9.50;5.10;;;;;;;16.20;67.14;102016.69;5091757;28;20269;-58
2022/07/16 03:43:49;;;;;;;7.68;5.03;;;;;;;16.28;66.98;102003.31;5091543;28;20537;-58
2022/07/16 03:46:14;;;;;;;6.93;4.60;;;;;;;16.23;67.33;102011.34;5091852;28;20051;-58
2022/07/16 03:48:41;;;;;;;7.60;4.80;;;;;;;16.20;67.63;102015.81;5091763;28;20439;-59
2022/07/16 03:51:06;;;;;;;9.18;5.10;;;;;;;16.18;67.88;102012.31;5091700;28;20375;-58
2022/07/16 03:53:35;;;;;;;11.15;5.60;;;;;;;16.17;68.10;102019.38;5091177;28;20032;-59
2022/07/16 03:56:02;;;;;;;7.60;5.20;;;;;;;16.19;68.36;102016.69;5091501;28;20081;-58
2022/07/16 03:58:27;;;;;;;7.93;5.22;;;;;;;16.18;69.00;102017.59;5091533;28;20130;-58
2022/07/16 04:00:53;;;;;;;6.53;5.25;;;;;;;16.16;69.15;102027.31;5091590;28;20465;-57
2022/07/16 04:03:18;;;;;;;8.75;5.53;;;;;;;16.20;69.07;102015.81;5091710;28;20101;-58
2022/07/16 04:05:43;;;;;;;9.45;5.63;;;;;;;16.22;69.26;102027.22;5091646;28;20028;-58
2022/07/16 04:08:09;;;;;;;10.70;5.70;;;;;;;16.23;69.32;102021.03;5091614;28;20093;-58
2022/07/16 04:10:34;;;;;;;9.15;5.63;;;;;;;16.26;69.61;102027.13;5091638;28;20134;-58
2022/07/16 04:12:59;;;;;;;7.90;5.97;;;;;;;16.25;69.99;102030.69;5091506;28;20149;-58
2022/07/16 04:15:24;;;;;;;8.88;5.80;;;;;;;16.28;70.08;102032.38;5091313;28;20059;-58
2022/07/16 04:17:50;;;;;;;9.45;5.55;;;;;;;16.28;70.53;102033.25;5094196;28;20127;-58
2022/07/16 04:20:15;;;;;;;6.40;5.70;;;;;;;16.31;70.56;102037.59;5095825;28;20142;-58
2022/07/16 04:22:41;;;;;;;8.82;5.50;;;;;;;16.32;71.33;102042.84;5095502;28;20274;-58
2022/07/16 04:25:06;;;;;;;10.75;5.88;;;;;;;16.33;71.59;102041.97;5095644;28;20042;-58
2022/07/16 04:27:32;;;;;;;9.55;6.18;;;;;;;16.35;71.80;102041.94;5095688;28;20020;-58
2022/07/16 04:29:58;;;;;;;9.32;5.88;;;;;;;16.38;71.85;102035.72;5095550;28;20058;-58
2022/07/16 04:32:23;;;;;;;8.48;6.60;;;;;;;16.38;72.72;102043.66;5095441;28;20031;-58
2022/07/16 04:34:48;;;;;;;10.52;6.13;;;;;;;16.38;72.79;102048.94;5095370;28;20047;-57
2022/07/16 04:37:14;;;;;;;10.70;6.63;;;;;;;16.35;73.13;102040.16;5095461;28;20036;-58
2022/07/16 04:39:39;;;;;;;10.07;6.38;;;;;;;16.31;73.59;102046.41;5095355;28;20032;-58
2022/07/16 04:42:04;;;;;;;9.30;6.13;;;;;;;16.29;74.19;102048.19;5095292;28;20445;-58
2022/07/16 04:44:30;;;;;;;8.20;6.07;;;;;;;16.26;74.68;102050.91;5095096;28;20119;-58
2022/07/16 04:46:55;;;;;;;7.40;6.10;;;;;;;16.25;75.29;102049.16;5095289;28;20081;-58
2022/07/16 04:49:20;;;;;;;10.40;7.05;;;;;;;16.26;75.74;102052.69;5095021;28;20323;-58
2022/07/16 04:51:45;;;;;;;7.93;6.32;;;;;;;16.23;76.34;102048.31;5095230;28;20043;-59
2022/07/16 04:54:11;;;;;;;11.57;6.50;;;;;;;16.24;77.30;102049.19;5095037;28;20127;-58
2022/07/16 04:56:36;;;;;;;11.57;6.13;;;;;;;16.24;78.22;102051.84;5094752;28;20032;-58
2022/07/16 04:59:01;;;;;;;9.48;6.20;;;;;;;16.25;78.59;102051.81;5094791;28;20043;-58
2022/07/16 05:01:27;;;;;;;14.00;6.13;;;;;;;16.29;79.22;102056.13;5094936;28;20355;-58
2022/07/16 05:03:52;;;;;;;9.60;6.05;;;;;;;16.34;79.76;102064.84;5094900;28;20031;-58
2022/07/16 05:06:17;;;;;;;11.40;5.70;;;;;;;16.38;80.35;102067.44;5094381;28;20038;-58
2022/07/16 05:08:42;;;;;;;9.65;5.88;;;;;;;16.39;81.10;102063.91;5094623;28;20066;-58
2022/07/16 05:11:09;;;;;;;13.15;5.22;;;;;;;16.35;82.31;102069.22;5094895;28;20370;-58
2022/07/16 05:13:35;;;;;;;9.10;5.03;;;;;;;16.38;83.07;102064.78;5094474;28;20036;-58
2022/07/16 05:16:01;;;;;;;8.00;5.18;;;;;;;16.40;83.91;102063.00;5094478;28;20046;-57
2022/07/16 05:18:26;;;;;;;8.50;5.30;;;;;;;16.42;84.30;102070.00;5094764;28;20035;-57
2022/07/16 05:20:52;;;;;;;8.98;4.78;;;;;;;16.49;84.31;102073.38;5094617;28;20330;-57
2022/07/16 05:23:17;;;;;;;8.63;4.82;;;;;;;16.52;84.56;102076.84;5094436;28;20032;-58
2022/07/16 05:25:42;;;;;;;9.32;5.13;;;;;;;16.56;84.74;102081.19;5094374;28;20136;-57
2022/07/16 05:28:08;;;;;;;8.55;4.60;;;;;;;16.60;85.19;102082.00;5094057;28;20036;-58
2022/07/16 05:30:33;;;;;;;10.13;4.90;;;;;;;16.65;85.59;102082.81;5094193;28;20453;-57
2022/07/16 05:32:58;;;;;;;8.20;5.05;;;;;;;16.60;86.32;102080.25;5094260;28;20035;-58
2022/07/16 05:35:24;;;;;;;6.00;4.55;;;;;;;16.68;85.80;102086.25;5094364;28;20036;-58
2022/07/16 05:37:49;;;;;;;9.82;4.88;;;;;;;16.73;86.75;102085.31;5093617;28;20130;-58
2022/07/16 05:40:14;;;;;;;8.57;4.63;;;;;;;16.79;86.32;102093.16;5094032;28;20042;-58
2022/07/16 05:42:40;;;;;;;10.95;4.78;;;;;;;16.83;87.01;102093.03;5094102;28;20036;-58
2022/07/16 05:45:06;;;;;;;6.40;4.20;;;;;;;16.85;87.19;102090.34;5093886;28;20052;-58
2022/07/16 05:47:33;;;;;;;9.02;4.22;;;;;;;16.86;87.17;102090.34;5093671;28;20463;-58
2022/07/16 05:50:00;;;;;;;8.70;4.50;;;;;;;16.90;87.89;102093.78;5094088;28;20028;-58
2022/07/16 05:52:25;;;;;;;11.68;4.85;;;;;;;16.95;88.05;102099.88;5093911;28;20046;-58
2022/07/16 05:54:50;;;;;;;7.25;4.55;;;;;;;17.00;87.88;102101.50;5093512;28;20083;-58
2022/07/16 05:57:16;;;;;;;10.75;4.47;;;;;;;17.04;88.09;102091.75;5075609;28;20040;-58
2022/07/16 05:59:41;;;;;;;7.55;4.30;;;;;;;17.08;88.17;102097.84;5093697;28;20118;-58
2022/07/16 06:02:06;;;;;;;6.07;3.63;;;;;;;17.11;86.34;102100.44;5093874;28;20032;-57
2022/07/16 06:04:32;;;;;;;7.82;3.00;;;;;;;17.14;86.65;102103.03;5093791;28;20069;-58
2022/07/16 06:06:57;;;;;;;8.00;3.92;;;;;;;17.16;86.14;102106.47;5093689;28;20036;-59
2022/07/16 06:09:22;;;;;;;4.97;3.30;;;;;;;17.23;85.71;102113.41;5093602;28;20032;-58
2022/07/16 06:11:48;;;;;;;4.72;3.00;;;;;;;17.37;85.77;102111.34;5093462;28;20101;-58
2022/07/16 06:14:13;;;;;;;6.95;3.08;;;;;;;17.88;84.15;102121.69;5093325;28;20040;-58
2022/07/16 06:16:40;;;;;;;3.45;2.30;;;;;;;18.16;80.52;102128.09;5093476;28;20024;-57
2022/07/16 06:19:05;;;;;;;5.47;2.30;;;;;;;18.03;79.82;102130.16;5093594;28;20024;-57
2022/07/16 06:21:30;;;;;;;4.40;2.10;;;;;;;17.89;79.66;102131.38;5093380;28;20046;-57
2022/07/16 06:23:56;;;;;;;3.55;2.05;;;;;;;17.86;79.35;102136.75;5093329;28;20040;-58
2022/07/16 06:26:21;;;;;;;6.87;2.00;;;;;;;17.87;79.64;102138.50;5093124;28;20035;-58
2022/07/16 06:28:46;;;;;;;6.03;2.00;;;;;;;17.87;78.57;102139.34;5093033;28;20262;-58
2022/07/16 06:31:11;;;;;;;5.03;1.90;;;;;;;17.87;78.22;102149.97;5092664;28;20135;-59
2022/07/16 06:33:37;;;;;;;4.65;2.03;;;;;;;17.90;78.35;102143.72;5093110;28;20593;-58
2022/07/16 06:36:03;;;;;;;3.17;1.90;;;;;;;17.97;77.80;102148.84;5092510;28;20036;-58
2022/07/16 06:38:28;;;;;;;3.58;1.85;;;;;;;17.94;78.48;102151.56;5093084;28;20032;-58
2022/07/16 06:40:54;;;;;;;2.80;1.98;;;;;;;17.90;77.68;102149.00;5092379;28;20150;-57
2022/07/16 06:43:19;;;;;;;4.10;2.20;;;;;;;17.84;78.22;102146.50;5092955;28;20089;-58
2022/07/16 06:45:44;;;;;;;3.08;1.90;;;;;;;17.82;78.36;102149.22;5092749;28;20043;-57
2022/07/16 06:48:10;;;;;;;4.63;2.10;;;;;;;17.86;78.38;102157.94;5092756;28;20032;-58
2022/07/16 06:50:35;;;;;;;2.72;2.10;;;;;;;17.94;77.56;102162.16;5092889;28;20513;-58
2022/07/16 06:53:00;;;;;;;3.10;2.00;;;;;;;17.97;77.98;102158.56;5092194;28;20764;-58
2022/07/16 06:55:26;;;;;;;3.97;1.90;;;;;;;18.01;76.71;102166.41;5092696;28;20028;-58
2022/07/16 06:57:51;;;;;;;4.90;1.60;;;;;;;17.96;75.24;102160.34;5092360;28;20506;-58
2022/07/16 07:00:17;;;;;;;4.05;1.80;;;;;;;17.95;73.93;102171.84;5092242;28;20039;-58
2022/07/16 07:02:42;;;;;;;6.10;1.50;;;;;;;17.97;73.53;102174.47;5092610;28;20367;-59
2022/07/16 07:05:07;;;;;;;5.68;2.00;;;;;;;17.96;73.99;102180.66;5092808;28;20032;-58
2022/07/16 07:07:33;;;;;;;4.72;1.65;;;;;;;18.03;73.50;102182.25;5092405;28;20063;-59
2022/07/16 07:09:58;;;;;;;5.22;1.45;;;;;;;17.95;73.33;102173.63;5092470;28;20122;-57
2022/07/16 07:12:23;;;;;;;4.03;1.30;;;;;;;17.99;71.58;102189.44;5092402;28;20051;-56
2022/07/16 07:14:48;;;;;;;3.90;1.17;;;;;;;18.05;69.39;102196.34;5092239;28;20771;-56
2022/07/16 07:17:14;;;;;;;2.33;1.10;;;;;;;18.07;66.97;102189.22;5092111;28;20131;-57
2022/07/16 07:19:39;;;;;;;3.27;1.20;;;;;;;18.09;65.29;102201.53;5092287;28;20089;-57
2022/07/16 07:22:04;;;;;;;1.87;1.03;;;;;;;18.15;64.98;102205.84;5091957;28;20362;-57
2022/07/16 07:24:29;;;;;;;3.07;1.10;;;;;;;18.24;64.32;102208.25;5091593;28;20286;-56
2022/07/16 07:26:55;;;;;;;2.60;1.13;;;;;;;18.30;64.29;102205.47;5092035;28;20278;-57
2022/07/16 07:29:20;;;;;;;3.20;1.20;;;;;;;18.34;65.37;102209.81;5092062;28;20073;-57
2022/07/16 07:31:45;;;;;;;3.88;1.30;;;;;;;18.47;65.08;102204.19;5091729;28;20355;-57
2022/07/16 07:34:11;;;;;;;2.53;1.17;;;;;;;18.61;64.34;102205.63;5091936;28;20436;-57
2022/07/16 07:36:36;;;;;;;3.58;1.30;;;;;;;18.71;63.89;102208.91;5091912;28;20032;-57
2022/07/16 07:39:01;;;;;;;2.72;1.23;;;;;;;18.69;63.25;102200.16;5091973;28;20335;-57
2022/07/16 07:41:27;;;;;;;3.53;1.15;;;;;;;18.66;64.00;102213.47;5091770;28;20042;-59
2022/07/16 07:43:52;;;;;;;2.90;1.20;;;;;;;18.66;64.33;102214.34;5092019;28;20031;-57
2022/07/16 07:46:18;;;;;;;3.92;1.30;;;;;;;18.63;63.91;102213.53;5091913;28;20036;-57
2022/07/16 07:48:43;;;;;;;5.85;1.25;;;;;;;18.59;64.38;102214.53;5091918;28;20032;-57
2022/07/16 07:51:09;;;;;;;2.38;1.27;;;;;;;18.61;64.94;102228.63;5091958;28;20070;-57
2022/07/16 07:53:36;;;;;;;3.15;1.20;;;;;;;18.64;64.23;102223.25;5091818;28;20028;-57
2022/07/16 07:56:01;;;;;;;3.08;1.33;;;;;;;18.63;64.48;102222.38;5091601;28;20031;-57
2022/07/16 07:58:27;;;;;;;3.22;1.30;;;;;;;18.65;64.21;102220.56;5091517;28;20421;-59
2022/07/16 08:00:54;;;;;;;2.63;1.20;;;;;;;18.75;63.76;102218.53;5091595;28;20039;-57
2022/07/16 08:03:20;;;;;;;3.88;1.40;;;;;;;18.85;63.31;102219.19;5091037;28;20039;-57
2022/07/16 08:05:45;;;;;;;2.03;1.02;;;;;;;18.93;61.70;102220.72;5091784;28;20036;-57
2022/07/16 08:08:11;;;;;;;3.95;1.30;;;;;;;18.95;62.25;102225.97;5091277;28;20119;-58
2022/07/16 08:10:36;;;;;;;1.92;1.00;;;;;;;18.94;61.12;102233.06;5096486;28;20060;-56
2022/07/16 08:13:01;;;;;;;3.55;1.50;;;;;;;18.91;61.95;102237.56;5094691;28;20063;-57
2022/07/16 08:15:26;;;;;;;2.90;1.60;;;;;;;18.80;62.29;102239.66;5114453;28;20054;-57
2022/07/16 08:17:52;;;;;;;4.28;1.40;;;;;;;18.74;63.05;102244.19;5110461;28;20114;-57
2022/07/16 08:20:17;;;;;;;5.27;1.50;;;;;;;18.73;63.49;102249.53;5110257;28;20039;-56
2022/07/16 08:22:43;;;;;;;4.40;1.52;;;;;;;18.69;63.56;102246.09;5109777;28;20738;-57
2022/07/16 08:27:53;;;;;;;2.72;1.38;;;;;;;18.74;63.49;102249.47;5110151;28;20058;-56
2022/07/16 08:30:19;;;;;;;5.70;1.73;;;;;;;18.78;63.31;102255.59;5110272;28;20055;-57
2022/07/16 08:32:44;;;;;;;4.82;1.67;;;;;;;18.82;63.61;102248.44;5110607;28;20049;-58
2022/07/16 08:35:10;;;;;;;2.63;1.30;;;;;;;18.91;63.30;102264.97;5110055;28;20118;-58
2022/07/16 08:37:38;;;;;;;3.92;1.45;;;;;;;18.92;61.27;102263.19;5110103;28;20036;-57
2022/07/16 08:40:10;;;;;;;4.88;1.40;;;;;;;18.97;61.78;102264.84;5111047;28;20040;-57
2022/07/16 08:42:37;;;;;;;3.63;1.20;;;;;;;19.08;61.10;102267.19;5111663;28;20035;-58
2022/07/16 08:45:04;;;;;;;3.63;1.35;;;;;;;19.17;57.95;102268.75;5110946;28;20044;-57
2022/07/16 08:47:31;;;;;;;2.83;1.40;;;;;;;19.09;57.74;102277.78;5111692;28;20559;-57
2022/07/16 08:50:01;;;;;;;5.72;1.83;;;;;;;19.03;58.33;102275.31;5111607;28;20049;-58
2022/07/16 08:52:28;;;;;;;5.25;1.63;;;;;;;19.07;59.38;102268.97;5111566;28;20085;-58
2022/07/16 08:54:55;;;;;;;2.78;1.25;;;;;;;19.33;59.05;102275.41;5111539;28;20071;-57
2022/07/16 08:57:22;;;;;;;4.57;1.38;;;;;;;19.47;57.88;102270.56;5111384;28;20448;-57
2022/07/16 08:59:47;;;;;;;3.42;1.30;;;;;;;19.73;58.22;102275.19;5111537;28;20058;-58
2022/07/16 09:02:13;;;;;;;2.15;1.05;;;;;;;20.03;56.46;102276.09;5111572;28;20446;-58
2022/07/16 09:04:40;;;;;;;3.78;1.30;;;;;;;20.36;54.73;102275.09;5115108;28;20412;-57
2022/07/16 09:07:05;;;;;;;3.10;1.40;;;;;;;20.36;54.51;102280.41;5115161;28;20031;-57
2022/07/16 09:09:30;;;;;;;3.58;1.20;;;;;;;20.57;53.92;102288.63;5115170;28;20039;-57
2022/07/16 09:11:56;;;;;;;3.83;1.50;;;;;;;20.83;52.92;102286.84;5115202;28;20035;-57
2022/07/16 09:14:21;;;;;;;3.55;1.20;;;;;;;21.52;51.26;102281.81;5115236;28;20109;-57
2022/07/16 09:16:53;;;;;;;4.28;1.30;;;;;;;21.77;49.50;102284.47;5115122;28;20133;-56
2022/07/16 09:19:20;;;;;;;2.90;1.20;;;;;;;21.77;49.45;102290.69;5101242;28;20518;-57
2022/07/16 09:22:06;;;;;;;2.85;1.52;;;;;;;22.01;50.01;102294.22;5101360;28;20043;-56
2022/07/16 09:24:34;;;;;;;3.63;1.10;;;;;;;21.36;49.19;102297.47;5094528;28;20023;-56
2022/07/16 09:27:10;;;;;;;3.28;1.00;;;;;;;22.34;48.15;102291.22;5094578;28;20043;-57
2022/07/16 09:29:44;;;;;;;3.88;1.20;;;;;;;23.74;45.85;102280.78;5094434;28;20039;-57
2022/07/16 09:32:10;;;;;;;2.50;1.00;;;;;;;24.44;41.74;102288.19;5094570;28;20130;-57
2022/07/16 09:34:35;;;;;;;5.05;1.00;;;;;;;24.89;40.06;102292.25;5094155;28;20419;-57
2022/07/16 09:37:05;;;;;;;5.15;1.10;;;;;;;24.79;40.61;102289.16;5094329;28;20039;-56
2022/07/16 09:39:32;;;;;;;3.38;1.25;;;;;;;24.73;40.80;102288.59;5094223;28;20516;-57
2022/07/16 09:41:58;;;;;;;7.57;1.50;;;;;;;24.41;41.50;102291.06;5093570;28;20040;-57
2022/07/16 09:44:31;;;;;;;3.55;1.40;;;;;;;23.56;42.13;102292.31;5094164;28;20468;-57
2022/07/16 09:47:09;;;;;;;4.18;1.00;;;;;;;23.04;44.19;102288.31;5094131;28;20139;-57
2022/07/16 09:49:36;;;;;;;2.38;0.80;;;;;;;22.94;43.80;102311.03;5093698;28;20035;-57
2022/07/16 09:52:06;;;;;;;4.63;1.10;;;;;;;23.06;43.88;102306.03;5093959;28;20043;-57
2022/07/16 09:54:35;;;;;;;4.90;1.30;;;;;;;23.13;43.07;102315.53;5093885;28;20051;-57
2022/07/16 09:57:16;;;;;;;3.28;1.15;;;;;;;23.16;43.67;102311.88;5093399;28;20036;-57
2022/07/16 09:59:42;;;;;;;3.17;1.33;;;;;;;23.01;42.67;102308.03;5093921;28;20043;-57
2022/07/16 10:02:08;;;;;;;2.80;1.02;;;;;;;22.97;43.29;102319.78;5075980;28;20437;-58
2022/07/16 10:04:33;;;;;;;2.65;1.13;;;;;;;23.13;43.03;102318.19;5093859;28;20040;-57
2022/07/16 10:06:59;;;;;;;2.47;1.10;;;;;;;23.06;43.40;102324.72;5093439;28;20032;-57
2022/07/16 10:09:25;;;;;;;2.15;1.00;;;;;;;22.77;42.35;102330.41;5093588;28;20067;-56
2022/07/16 10:11:53;;;;;;;2.47;0.80;;;;;;;22.40;42.65;102329.16;5093560;28;20036;-56
2022/07/16 10:14:19;;;;;;;2.15;0.98;;;;;;;22.53;42.19;102327.75;5092478;28;20032;-58
2022/07/16 10:16:45;;;;;;;3.42;1.20;;;;;;;22.61;40.56;102329.25;5093392;28;20048;-57
2022/07/16 10:19:11;;;;;;;3.00;0.82;;;;;;;22.72;40.79;102327.88;5093423;28;20348;-58
2022/07/16 10:21:38;;;;;;;2.70;0.98;;;;;;;22.80;40.87;102327.63;5093439;28;20411;-59
2022/07/16 10:24:06;;;;;;;2.63;0.90;;;;;;;22.79;41.64;102331.22;5092896;28;20062;-56
2022/07/16 10:26:33;;;;;;;5.88;1.50;;;;;;;22.65;41.99;102331.75;5093211;28;20036;-57
2022/07/16 10:29:00;;;;;;;3.88;1.00;;;;;;;22.76;41.97;102341.97;5093324;28;20036;-56
2022/07/16 10:31:34;;;;;;;3.45;1.10;;;;;;;22.87;41.36;102345.09;5092708;28;20131;-57
2022/07/16 10:34:14;;;;;;;4.22;1.20;;;;;;;23.03;41.94;102337.34;5093281;28;20036;-58
2022/07/16 10:36:54;;;;;;;2.45;1.15;;;;;;;23.27;41.40;102345.19;5092858;28;20036;-57
2022/07/16 10:39:24;;;;;;;3.60;1.10;;;;;;;23.35;40.55;102336.00;5093064;28;20047;-57
2022/07/16 10:41:52;;;;;;;3.00;1.10;;;;;;;23.56;40.47;102335.94;5074863;28;20359;-57
2022/07/16 10:44:19;;;;;;;2.95;1.08;;;;;;;23.23;41.02;102343.56;5093147;28;20106;-57
2022/07/16 10:46:59;;;;;;;2.50;1.23;;;;;;;23.17;41.94;102349.19;5092984;28;20043;-57
2022/07/16 10:49:27;;;;;;;3.83;1.27;;;;;;;23.17;40.64;102346.53;5093052;28;20051;-57
2022/07/16 10:51:53;;;;;;;3.80;1.20;;;;;;;23.23;40.09;102340.91;5092917;28;20431;-57
2022/07/16 10:54:19;;;;;;;3.03;1.10;;;;;;;23.33;40.09;102346.75;5092928;28;20036;-57
2022/07/16 10:56:48;;;;;;;1.98;0.98;;;;;;;22.99;39.94;102349.97;5092808;28;20028;-57
2022/07/16 10:59:15;;;;;;;3.92;1.75;;;;;;;23.18;40.57;102358.94;5092564;28;20119;-56
2022/07/16 11:01:43;;;;;;;2.45;1.33;;;;;;;23.46;39.56;102350.59;5092337;28;20518;-57
2022/07/16 11:04:10;;;;;;;2.55;1.10;;;;;;;23.77;38.50;102347.50;5092325;28;20355;-56
2022/07/16 11:06:36;;;;;;;2.40;1.25;;;;;;;24.10;38.29;102346.88;5092377;28;20032;-58
2022/07/16 11:09:04;;;;;;;3.08;1.33;;;;;;;24.37;37.97;102336.75;5092522;28;20038;-57
2022/07/16 11:11:34;;;;;;;3.45;1.27;;;;;;;24.43;38.58;102342.66;5092508;28;20079;-58
2022/07/16 11:14:00;;;;;;;4.10;1.25;;;;;;;24.05;39.66;102347.13;5092623;28;20043;-57
2022/07/16 11:16:26;;;;;;;3.50;1.27;;;;;;;23.81;40.01;102354.44;5092323;28;20040;-57
2022/07/16 11:18:52;;;;;;;2.65;1.00;;;;;;;23.43;40.88;102357.88;5092376;28;20042;-57
2022/07/16 11:21:17;;;;;;;2.60;1.08;;;;;;;22.84;41.79;102371.94;5092372;28;20039;-58
2022/07/16 11:23:53;;;;;;;3.10;1.25;;;;;;;22.80;42.91;102360.53;5092312;28;20081;-60